Saint Martinville, Louisiana
Current Conditions -  °F | °C
As of 4:31 AM on Sunday 26 Oct 2014 (Local Time) from KARA Reporting Station
Clear Clear  
Wind Chill: 55°   Ceiling: Unl
Heat Index: 55°   Visibility: 9mi
Dew Point: 53°   Wind: 0mph
Humidity: 93%   Direction: NA
Pressure: 30.06"   Gusts: NA
Location:  30.13°N, 91.83°W
Report Text: KARA 260931Z AUTO 00000KT 9SM CLR 13/12 A3006 RMK AO2 T01280117 $
Loading
Personal Weather Stations






























Interactive Weather Map
Tropical Storm Tracking
New forecast layout! Learn more

10-Day Weather Forecast

Advertisements
Track Severe Weather on mobile